createdAt,value
2019-01-31T00:01:21.946Z,12.30
2019-01-31T00:04:09.788Z,12.17
2019-01-31T00:06:57.933Z,11.73
2019-01-31T00:09:31.127Z,12.73
2019-01-31T00:12:19.069Z,12.97
2019-01-31T00:15:01.636Z,10.30
2019-01-31T00:17:48.004Z,12.27
2019-01-31T00:20:25.005Z,13.47
2019-01-31T00:23:16.264Z,11.73
2019-01-31T00:26:06.102Z,11.40
2019-01-31T00:28:55.625Z,12.57
2019-01-31T00:31:28.814Z,12.60
2019-01-31T00:34:24.648Z,12.27
2019-01-31T00:36:57.775Z,12.27
2019-01-31T00:39:59.681Z,13.70
2019-01-31T00:42:36.765Z,13.03
2019-01-31T00:45:30.650Z,13.57
2019-01-31T00:48:06.538Z,12.30
2019-01-31T00:50:48.361Z,12.07
2019-01-31T00:53:24.309Z,12.80
2019-01-31T00:56:03.136Z,12.33
2019-01-31T00:58:44.590Z,12.00
2019-01-31T01:01:29.229Z,12.93
2019-01-31T01:04:25.037Z,13.47
2019-01-31T01:07:00.965Z,12.80
2019-01-31T01:09:42.733Z,12.57
2019-01-31T01:12:18.535Z,12.77
2019-01-31T01:15:03.144Z,13.93
2019-01-31T01:17:47.909Z,12.77
2019-01-31T01:20:52.757Z,12.63
2019-01-31T01:23:34.569Z,12.53
2019-01-31T01:26:07.579Z,12.73
2019-01-31T01:28:52.519Z,13.57
2019-01-31T01:31:25.772Z,13.50
2019-01-31T01:34:27.537Z,14.33
2019-01-31T01:37:12.287Z,12.17
2019-01-31T01:39:45.216Z,13.50
2019-01-31T01:42:33.370Z,13.60
2019-01-31T01:45:08.973Z,13.77
2019-01-31T01:47:47.857Z,14.63
2019-01-31T01:50:20.872Z,14.03
2019-01-31T01:52:53.917Z,13.80
2019-01-31T01:55:35.693Z,14.23
2019-01-31T01:58:32.867Z,13.80
2019-01-31T02:01:18.024Z,15.10
2019-01-31T02:04:08.107Z,14.73
2019-01-31T02:07:15.535Z,13.90
2019-01-31T02:09:54.393Z,13.30
2019-01-31T02:12:27.244Z,14.43
2019-01-31T02:15:00.898Z,15.23
2019-01-31T02:17:59.671Z,15.83
2019-01-31T02:20:44.473Z,14.47
2019-01-31T02:23:17.791Z,15.07
2019-01-31T02:25:50.979Z,15.03
2019-01-31T02:28:51.570Z,15.03
2019-01-31T02:31:30.188Z,14.63
2019-01-31T02:34:11.830Z,15.07
2019-01-31T02:37:02.695Z,14.73
2019-01-31T02:39:44.312Z,14.53
2019-01-31T02:42:32.240Z,16.37
2019-01-31T02:45:07.878Z,14.50
2019-01-31T02:47:46.523Z,16.13
2019-01-31T02:50:28.092Z,15.60
2019-01-31T02:53:20.607Z,15.30
2019-01-31T02:56:02.719Z,15.43
2019-01-31T02:58:44.594Z,14.63
2019-01-31T03:01:28.865Z,16.27
2019-01-31T03:04:19.914Z,15.53
2019-01-31T03:07:16.406Z,16.17
2019-01-31T03:10:04.460Z,15.87
2019-01-31T03:12:49.500Z,15.97
2019-01-31T03:15:22.538Z,16.03
2019-01-31T03:17:58.682Z,15.80
2019-01-31T03:20:43.644Z,17.40
2019-01-31T03:23:40.949Z,14.40
2019-01-31T03:26:23.099Z,16.40
2019-01-31T03:29:18.543Z,16.17
2019-01-31T03:31:53.977Z,17.60
2019-01-31T03:34:29.697Z,17.43
2019-01-31T03:37:20.788Z,16.77
2019-01-31T03:40:15.980Z,17.57
2019-01-31T03:43:08.790Z,16.83
2019-01-31T03:46:06.003Z,16.67
2019-01-31T03:48:41.808Z,16.97
2019-01-31T03:51:20.267Z,17.53
2019-01-31T03:53:58.370Z,17.50
2019-01-31T03:56:37.424Z,16.93
2019-01-31T03:59:13.321Z,17.37
2019-01-31T04:02:04.222Z,17.63
2019-01-31T04:04:55.203Z,18.60
2019-01-31T04:07:24.798Z,18.20
2019-01-31T04:09:54.444Z,19.43
2019-01-31T04:12:24.874Z,18.60
2019-01-31T04:14:54.354Z,19.10
2019-01-31T04:17:24.153Z,17.83
2019-01-31T04:19:54.115Z,18.03
2019-01-31T04:22:23.774Z,17.60
2019-01-31T04:24:53.413Z,18.13
2019-01-31T04:27:23.106Z,19.10
2019-01-31T04:29:52.844Z,18.80
2019-01-31T04:32:22.529Z,19.13
2019-01-31T04:34:52.248Z,19.20
2019-01-31T04:37:21.793Z,19.53
2019-01-31T04:39:51.458Z,18.97
2019-01-31T04:42:21.207Z,20.33
2019-01-31T04:44:50.972Z,19.73
2019-01-31T04:47:20.924Z,19.33
2019-01-31T04:49:50.545Z,20.77
2019-01-31T04:52:20.269Z,19.70
2019-01-31T04:54:49.983Z,21.07
2019-01-31T04:57:21.268Z,20.57
2019-01-31T04:59:51.043Z,20.93
2019-01-31T05:02:20.686Z,19.57
2019-01-31T05:04:50.519Z,21.97
2019-01-31T05:07:20.277Z,20.27
2019-01-31T05:09:49.961Z,20.03
2019-01-31T05:12:19.543Z,20.63
2019-01-31T05:14:49.273Z,21.20
2019-01-31T05:17:18.952Z,21.33
2019-01-31T05:19:49.132Z,21.17
2019-01-31T05:22:18.802Z,20.43
2019-01-31T05:24:48.714Z,21.03
2019-01-31T05:27:18.361Z,20.80
2019-01-31T05:29:48.272Z,20.93
2019-01-31T05:32:17.903Z,20.93
2019-01-31T05:34:47.712Z,21.20
2019-01-31T05:37:17.343Z,21.13
2019-01-31T05:39:47.114Z,20.83
2019-01-31T05:42:16.823Z,20.90
2019-01-31T05:44:46.664Z,21.30
2019-01-31T05:47:16.397Z,21.00
2019-01-31T05:49:46.212Z,21.37
2019-01-31T05:52:15.828Z,20.77
2019-01-31T05:54:45.640Z,19.97
2019-01-31T05:57:15.384Z,20.97
2019-01-31T05:59:45.512Z,21.23
2019-01-31T06:02:15.166Z,20.70
2019-01-31T06:04:45.193Z,21.43
2019-01-31T06:07:14.760Z,20.17
2019-01-31T06:09:44.434Z,21.93
2019-01-31T06:12:14.073Z,21.20
2019-01-31T06:14:43.740Z,20.87
2019-01-31T06:17:13.849Z,20.77
2019-01-31T06:19:43.722Z,22.40
2019-01-31T06:22:13.403Z,21.30
2019-01-31T06:24:43.431Z,19.73
2019-01-31T06:27:13.190Z,20.40
2019-01-31T06:29:42.848Z,19.07
2019-01-31T06:32:12.459Z,20.50
2019-01-31T06:34:42.112Z,18.33
2019-01-31T06:37:11.773Z,20.00
2019-01-31T06:39:41.534Z,20.10
2019-01-31T06:42:12.318Z,19.47
2019-01-31T06:44:42.116Z,21.60
2019-01-31T06:47:12.040Z,24.00
2019-01-31T06:49:41.888Z,20.67
2019-01-31T06:52:12.029Z,18.50
2019-01-31T06:54:41.612Z,19.37
2019-01-31T06:57:17.779Z,19.50
2019-01-31T06:59:47.565Z,19.87
2019-01-31T07:02:17.211Z,18.90
2019-01-31T07:04:46.816Z,19.60
2019-01-31T07:07:16.789Z,18.87
2019-01-31T07:09:46.410Z,19.27
2019-01-31T07:12:16.061Z,21.40
2019-01-31T07:14:45.970Z,20.77
2019-01-31T07:17:18.370Z,20.50
2019-01-31T07:19:47.355Z,21.33
2019-01-31T07:22:17.147Z,19.40
2019-01-31T07:24:46.938Z,21.03
2019-01-31T07:27:16.698Z,20.27
2019-01-31T07:29:52.207Z,19.13
2019-01-31T07:32:21.982Z,19.83
2019-01-31T07:34:51.691Z,20.10
2019-01-31T07:37:23.162Z,20.73
2019-01-31T07:39:52.949Z,19.43
2019-01-31T07:42:22.642Z,19.83
2019-01-31T07:44:52.517Z,20.53
2019-01-31T07:47:22.213Z,19.93
2019-01-31T07:49:52.027Z,20.07
2019-01-31T07:52:21.794Z,19.63
2019-01-31T07:54:51.657Z,21.20
2019-01-31T07:57:21.362Z,19.97
2019-01-31T07:59:51.181Z,20.83
2019-01-31T08:02:20.958Z,20.77
2019-01-31T08:04:50.660Z,21.13
2019-01-31T08:07:20.306Z,21.03
2019-01-31T08:09:50.132Z,20.53
2019-01-31T08:12:19.774Z,20.47
2019-01-31T08:14:50.135Z,19.10
2019-01-31T08:17:19.801Z,20.47
2019-01-31T08:19:49.618Z,22.00
2019-01-31T08:22:19.362Z,19.70
2019-01-31T08:24:49.357Z,20.93
2019-01-31T08:27:19.180Z,21.43
2019-01-31T08:29:48.937Z,20.27
2019-01-31T08:32:18.452Z,21.50
2019-01-31T08:34:48.274Z,21.37
2019-01-31T08:37:17.966Z,21.37
2019-01-31T08:39:47.820Z,20.90
2019-01-31T08:42:17.517Z,20.40
2019-01-31T08:44:47.427Z,20.87
2019-01-31T08:47:17.084Z,20.77
2019-01-31T08:49:46.872Z,21.83
2019-01-31T08:52:16.892Z,20.53
2019-01-31T08:54:46.608Z,19.57
2019-01-31T08:57:16.337Z,20.47
2019-01-31T08:59:45.969Z,20.73
2019-01-31T09:02:15.588Z,19.33
2019-01-31T09:04:45.365Z,19.80
2019-01-31T09:07:15.189Z,20.53
2019-01-31T09:09:44.812Z,20.17
2019-01-31T09:12:15.616Z,20.37
2019-01-31T09:14:45.589Z,21.07
2019-01-31T09:17:15.258Z,21.43
2019-01-31T09:19:44.821Z,20.53
2019-01-31T09:22:17.926Z,21.70
2019-01-31T09:25:02.803Z,21.90
2019-01-31T09:27:52.417Z,21.10
2019-01-31T09:30:43.434Z,22.43
2019-01-31T09:33:31.548Z,22.60
2019-01-31T09:36:22.625Z,21.00
2019-01-31T09:39:27.491Z,22.37
2019-01-31T09:42:06.308Z,23.63
2019-01-31T09:44:39.243Z,23.40
2019-01-31T09:47:36.700Z,22.90
2019-01-31T09:50:28.013Z,23.53
2019-01-31T09:53:02.474Z,24.17
2019-01-31T09:55:59.590Z,22.47
2019-01-31T09:58:32.700Z,24.67
2019-01-31T10:01:20.910Z,24.30
2019-01-31T10:03:53.850Z,24.40
2019-01-31T10:06:26.781Z,24.23
2019-01-31T10:09:22.475Z,23.37
2019-01-31T10:12:01.536Z,25.37
2019-01-31T10:14:40.422Z,23.50
2019-01-31T10:17:48.822Z,23.40
2019-01-31T10:20:24.680Z,23.20
2019-01-31T10:23:06.760Z,24.20
2019-01-31T10:25:54.606Z,23.47
2019-01-31T10:28:36.430Z,22.73
2019-01-31T10:31:30.347Z,22.17
2019-01-31T10:34:08.967Z,22.30
2019-01-31T10:36:42.045Z,23.67
2019-01-31T10:39:17.697Z,23.63
2019-01-31T10:42:11.934Z,22.63
2019-01-31T10:45:05.982Z,22.33
2019-01-31T10:47:44.572Z,21.70
2019-01-31T10:50:32.452Z,21.87
2019-01-31T10:53:35.974Z,22.40
2019-01-31T10:56:44.302Z,22.87
2019-01-31T10:59:22.932Z,20.43
2019-01-31T11:02:07.983Z,22.67
2019-01-31T11:04:53.167Z,22.90
2019-01-31T11:07:37.828Z,22.10
2019-01-31T11:10:33.429Z,22.90
2019-01-31T11:13:21.563Z,21.60
2019-01-31T11:16:00.335Z,23.70
2019-01-31T11:18:36.266Z,23.70
2019-01-31T11:21:25.641Z,22.43
2019-01-31T11:24:10.533Z,22.80
2019-01-31T11:27:04.723Z,21.40
2019-01-31T11:29:55.626Z,22.37
2019-01-31T11:32:49.714Z,21.83
2019-01-31T11:35:34.866Z,22.90
2019-01-31T11:38:13.710Z,22.23
2019-01-31T11:41:09.536Z,23.47
2019-01-31T11:43:57.582Z,23.00
2019-01-31T11:46:53.370Z,23.17
2019-01-31T11:49:26.346Z,22.40
2019-01-31T11:52:02.153Z,22.27
2019-01-31T11:54:34.994Z,22.67
2019-01-31T11:57:10.969Z,21.80
2019-01-31T11:59:40.851Z,20.33
2019-01-31T12:02:10.665Z,21.80
2019-01-31T12:04:40.372Z,21.40
2019-01-31T12:07:11.230Z,20.77
2019-01-31T12:09:41.238Z,19.47
2019-01-31T12:12:11.230Z,19.67
2019-01-31T12:14:41.255Z,20.77
2019-01-31T12:17:10.978Z,19.20
2019-01-31T12:19:40.614Z,19.97
2019-01-31T12:22:10.472Z,19.67
2019-01-31T12:24:40.178Z,19.60
2019-01-31T12:27:10.095Z,19.80
2019-01-31T12:29:39.735Z,19.07
2019-01-31T12:32:09.537Z,19.23
2019-01-31T12:34:39.547Z,18.90
2019-01-31T12:37:09.238Z,18.20
2019-01-31T12:39:38.949Z,18.30
2019-01-31T12:42:09.536Z,19.87
2019-01-31T12:44:39.764Z,18.07
2019-01-31T12:47:09.530Z,18.90
2019-01-31T12:49:39.238Z,18.00
2019-01-31T12:52:08.993Z,18.93
2019-01-31T12:54:38.796Z,19.37
2019-01-31T12:57:08.551Z,18.37
2019-01-31T12:59:38.213Z,19.40
2019-01-31T13:02:08.224Z,18.00
2019-01-31T13:04:37.944Z,19.27
2019-01-31T13:07:08.178Z,18.53
2019-01-31T13:09:37.876Z,18.43
2019-01-31T13:12:08.286Z,18.33
2019-01-31T13:14:38.016Z,18.33
2019-01-31T13:17:07.888Z,19.03
2019-01-31T13:19:37.823Z,19.27
2019-01-31T13:22:07.433Z,18.40
2019-01-31T13:24:37.314Z,19.30
2019-01-31T13:27:07.613Z,19.13
2019-01-31T13:29:37.402Z,19.10
2019-01-31T13:32:07.022Z,18.77
2019-01-31T13:34:36.849Z,18.33
2019-01-31T13:37:06.653Z,17.60
2019-01-31T13:39:36.425Z,17.50
2019-01-31T13:42:06.077Z,16.77
2019-01-31T13:44:35.870Z,16.83
2019-01-31T13:47:05.525Z,16.47
2019-01-31T13:49:35.386Z,15.77
2019-01-31T13:52:05.177Z,15.87
2019-01-31T13:54:35.241Z,16.60
2019-01-31T13:57:04.971Z,15.90
2019-01-31T13:59:34.701Z,16.50
2019-01-31T14:02:04.376Z,14.60
2019-01-31T14:04:34.331Z,14.37
2019-01-31T14:07:04.060Z,15.03
2019-01-31T14:09:33.768Z,14.20
2019-01-31T14:12:03.513Z,14.50
2019-01-31T14:14:33.560Z,14.07
2019-01-31T14:17:03.281Z,18.53
2019-01-31T14:19:33.087Z,15.13
2019-01-31T14:22:02.768Z,20.33
2019-01-31T14:24:32.639Z,14.43
2019-01-31T14:27:02.339Z,15.07
2019-01-31T14:29:32.442Z,15.03
2019-01-31T14:32:02.224Z,14.83
2019-01-31T14:34:32.096Z,15.33
2019-01-31T14:37:01.857Z,14.70
2019-01-31T14:39:31.726Z,13.17
2019-01-31T14:42:01.445Z,13.00
2019-01-31T14:44:31.205Z,20.93
2019-01-31T14:47:01.036Z,18.80
2019-01-31T14:49:30.715Z,18.20
2019-01-31T14:52:00.291Z,31.87
2019-01-31T14:54:30.103Z,22.80
2019-01-31T14:56:59.838Z,18.43
2019-01-31T14:59:29.511Z,25.20
2019-01-31T15:05:36.592Z,14.47
2019-01-31T15:08:05.202Z,13.37
2019-01-31T15:10:35.179Z,13.50
2019-01-31T15:13:05.086Z,13.17
2019-01-31T15:15:35.105Z,14.03
2019-01-31T15:18:05.749Z,14.00
2019-01-31T15:20:38.797Z,13.53
2019-01-31T15:23:08.502Z,14.07
2019-01-31T15:25:38.865Z,13.63
2019-01-31T15:28:12.058Z,15.33
2019-01-31T15:30:43.274Z,14.43
2019-01-31T15:33:13.532Z,13.23
2019-01-31T15:35:43.447Z,13.60
2019-01-31T15:38:13.893Z,13.83
2019-01-31T15:40:46.067Z,13.50
2019-01-31T15:43:17.190Z,16.73
2019-01-31T15:45:59.337Z,17.27
2019-01-31T15:48:48.450Z,33.70
2019-01-31T15:51:21.318Z,35.00
2019-01-31T15:53:51.957Z,23.30
2019-01-31T15:56:22.349Z,20.50
2019-01-31T15:58:52.664Z,17.13
2019-01-31T16:01:23.242Z,17.40
2019-01-31T16:03:53.599Z,18.03
2019-01-31T16:06:24.316Z,17.93
2019-01-31T16:08:54.682Z,16.40
2019-01-31T16:11:24.732Z,17.37
2019-01-31T16:13:55.601Z,16.87
2019-01-31T16:16:26.229Z,18.73
2019-01-31T16:18:56.847Z,18.73
2019-01-31T16:21:27.182Z,22.07
2019-01-31T16:23:57.549Z,21.93
2019-01-31T16:26:28.050Z,20.03
2019-01-31T16:28:59.142Z,19.70
2019-01-31T16:31:35.891Z,18.67
2019-01-31T16:34:06.490Z,18.30
2019-01-31T16:36:37.748Z,18.33
2019-01-31T16:39:08.745Z,18.53
2019-01-31T16:41:38.933Z,17.77
2019-01-31T16:44:11.048Z,17.87
2019-01-31T16:46:41.635Z,16.47
2019-01-31T16:49:12.012Z,18.10
2019-01-31T16:51:45.447Z,17.60
2019-01-31T16:54:14.444Z,16.70
2019-01-31T16:56:45.276Z,16.17
2019-01-31T16:59:16.106Z,17.43
2019-01-31T17:01:46.464Z,17.40
2019-01-31T17:04:16.927Z,16.80
2019-01-31T17:06:47.680Z,18.00
2019-01-31T17:09:18.372Z,17.50
2019-01-31T17:11:48.874Z,17.93
2019-01-31T17:14:19.035Z,17.00
2019-01-31T17:16:49.418Z,16.70
2019-01-31T17:19:19.606Z,18.83
2019-01-31T17:21:50.121Z,23.37
2019-01-31T17:24:22.994Z,22.67
2019-01-31T17:26:52.682Z,20.50
2019-01-31T17:29:22.723Z,20.23
2019-01-31T17:31:52.686Z,21.13
2019-01-31T17:34:23.240Z,17.33
2019-01-31T17:36:53.805Z,17.70
2019-01-31T17:39:23.911Z,19.30
2019-01-31T17:41:54.093Z,18.97
2019-01-31T17:44:24.746Z,17.57
2019-01-31T17:46:55.082Z,18.03
2019-01-31T17:49:26.727Z,18.80
2019-01-31T17:51:57.089Z,19.27
2019-01-31T17:54:27.528Z,20.60
2019-01-31T17:56:57.639Z,20.87
2019-01-31T17:59:27.718Z,19.57
2019-01-31T18:01:57.872Z,19.30
2019-01-31T18:04:28.452Z,20.13
2019-01-31T18:06:59.142Z,17.70
2019-01-31T18:09:29.783Z,16.23
2019-01-31T18:12:00.292Z,16.23
2019-01-31T18:14:30.662Z,16.33
2019-01-31T18:17:01.321Z,15.67
2019-01-31T18:19:31.844Z,14.83
2019-01-31T18:22:02.370Z,14.43
2019-01-31T18:24:32.648Z,14.70
2019-01-31T18:27:02.791Z,14.13
2019-01-31T18:29:33.010Z,14.93
2019-01-31T18:32:03.084Z,14.97
2019-01-31T18:34:33.834Z,14.60
2019-01-31T18:37:03.785Z,16.00
2019-01-31T18:39:33.898Z,18.87
2019-01-31T18:42:10.743Z,19.70
2019-01-31T18:44:43.685Z,21.43
2019-01-31T18:47:12.584Z,20.83
2019-01-31T18:49:43.253Z,18.90
2019-01-31T18:52:13.640Z,18.30
2019-01-31T18:54:44.118Z,17.37
2019-01-31T18:57:14.204Z,16.43
2019-01-31T18:59:44.794Z,15.20
2019-01-31T19:02:14.738Z,15.87
2019-01-31T19:04:45.042Z,17.23
2019-01-31T19:07:15.327Z,17.13
2019-01-31T19:09:45.758Z,16.53
2019-01-31T19:12:16.079Z,16.33
2019-01-31T19:14:46.250Z,19.07
2019-01-31T19:17:16.399Z,18.50
2019-01-31T19:19:46.729Z,18.87
2019-01-31T19:22:18.245Z,20.50
2019-01-31T19:24:49.122Z,17.77
2019-01-31T19:27:19.853Z,24.97
2019-01-31T19:29:50.662Z,19.67
2019-01-31T19:32:21.133Z,24.50
2019-01-31T19:35:24.823Z,21.87
2019-01-31T19:37:47.361Z,16.97
2019-01-31T19:40:20.284Z,16.07
2019-01-31T19:46:29.306Z,15.90
2019-01-31T19:48:57.896Z,30.27
2019-01-31T19:51:28.325Z,45.20
2019-01-31T19:53:58.283Z,16.93
2019-01-31T19:56:28.939Z,17.10
2019-01-31T19:58:59.383Z,16.20
2019-01-31T20:01:29.979Z,16.37
2019-01-31T20:04:00.612Z,16.93
2019-01-31T20:06:31.283Z,16.23
2019-01-31T20:09:01.862Z,14.60
2019-01-31T20:11:32.134Z,15.83
2019-01-31T20:14:02.614Z,15.90
2019-01-31T20:16:32.905Z,14.17
2019-01-31T20:19:03.086Z,15.33
2019-01-31T20:21:33.576Z,16.43
2019-01-31T20:24:03.713Z,16.37
2019-01-31T20:26:37.345Z,14.80
2019-01-31T20:29:07.416Z,15.40
2019-01-31T20:31:37.429Z,15.00
2019-01-31T20:34:07.759Z,15.50
2019-01-31T20:36:37.857Z,17.17
2019-01-31T20:39:08.828Z,16.77
2019-01-31T20:41:39.163Z,16.80
2019-01-31T20:44:09.624Z,16.80
2019-01-31T20:46:40.482Z,16.57
2019-01-31T20:49:11.104Z,16.80
2019-01-31T20:51:41.453Z,16.07
2019-01-31T20:54:11.919Z,15.80
2019-01-31T20:56:43.365Z,16.97
2019-01-31T20:59:13.816Z,14.20
2019-01-31T21:01:44.285Z,24.50
2019-01-31T21:04:15.177Z,18.27
2019-01-31T21:06:45.708Z,21.50
2019-01-31T21:09:16.501Z,16.53
2019-01-31T21:11:46.986Z,17.47
2019-01-31T21:14:17.416Z,18.27
2019-01-31T21:16:51.784Z,17.60
2019-01-31T21:19:19.819Z,17.83
2019-01-31T21:21:50.312Z,17.80
2019-01-31T21:24:21.140Z,17.40
2019-01-31T21:26:57.170Z,18.20
2019-01-31T21:29:27.527Z,15.63
2019-01-31T21:32:00.271Z,16.50
2019-01-31T21:34:32.486Z,18.03
2019-01-31T21:37:04.787Z,18.23
2019-01-31T21:39:35.016Z,17.17
2019-01-31T21:42:24.125Z,21.77
2019-01-31T21:45:21.300Z,19.00
2019-01-31T21:47:53.174Z,17.13
2019-01-31T21:50:34.107Z,17.87
2019-01-31T21:53:16.768Z,16.93
2019-01-31T21:55:46.680Z,17.57
2019-01-31T21:58:23.696Z,18.90
2019-01-31T22:01:01.173Z,18.60
2019-01-31T22:03:32.671Z,19.03
2019-01-31T22:06:02.934Z,18.17
2019-01-31T22:08:32.698Z,17.63
2019-01-31T22:11:02.531Z,18.17
2019-01-31T22:13:32.715Z,18.27
2019-01-31T22:16:03.453Z,19.07
2019-01-31T22:18:33.186Z,19.83
2019-01-31T22:21:04.344Z,19.50
2019-01-31T22:23:35.332Z,17.47
2019-01-31T22:26:05.169Z,19.37
2019-01-31T22:28:36.614Z,17.97
2019-01-31T22:31:07.335Z,20.50
2019-01-31T22:33:38.997Z,20.50
2019-01-31T22:36:09.696Z,20.67
2019-01-31T22:38:40.381Z,20.43
2019-01-31T22:41:10.709Z,19.70
2019-01-31T22:43:42.179Z,20.33
2019-01-31T22:46:13.193Z,21.23
2019-01-31T22:48:44.261Z,19.70
2019-01-31T22:51:15.620Z,21.83
2019-01-31T22:53:46.280Z,21.43
2019-01-31T22:56:17.001Z,21.30
2019-01-31T22:58:47.995Z,21.30
2019-01-31T23:01:31.546Z,22.10
2019-01-31T23:04:06.513Z,23.23
2019-01-31T23:06:38.638Z,22.07
2019-01-31T23:09:09.718Z,23.50
2019-01-31T23:11:40.107Z,23.40
2019-01-31T23:14:15.999Z,21.77
2019-01-31T23:16:48.567Z,23.20
2019-01-31T23:19:20.258Z,23.53
2019-01-31T23:21:51.571Z,24.00
2019-01-31T23:24:23.544Z,23.77
2019-01-31T23:26:55.227Z,23.80
2019-01-31T23:29:26.636Z,22.67
2019-01-31T23:31:57.252Z,23.70
2019-01-31T23:34:28.810Z,23.37
2019-01-31T23:37:00.072Z,23.33
2019-01-31T23:39:31.377Z,22.47
2019-01-31T23:42:03.593Z,23.67
2019-01-31T23:44:36.334Z,24.20
2019-01-31T23:47:07.866Z,24.63
2019-01-31T23:49:39.423Z,23.57
2019-01-31T23:52:10.327Z,24.43
2019-01-31T23:54:41.715Z,22.33
2019-01-31T23:57:12.387Z,23.53
2019-01-31T23:59:43.126Z,24.33
